createdAt,value
2023-09-05T00:02:07.175Z,101761.25
2023-09-05T00:04:34.710Z,101758.69
2023-09-05T00:07:02.071Z,101754.28
2023-09-05T00:09:29.150Z,101765.94
2023-09-05T00:11:56.151Z,101767.00
2023-09-05T00:14:23.410Z,101762.66
2023-09-05T00:16:50.514Z,101760.97
2023-09-05T00:19:17.609Z,101764.59
2023-09-05T00:21:44.688Z,101769.06
2023-09-05T00:24:25.973Z,101765.63
2023-09-05T00:26:53.635Z,101761.06
2023-09-05T00:29:20.731Z,101764.69
2023-09-05T00:31:48.592Z,101762.88
2023-09-05T00:34:16.229Z,101778.78
2023-09-05T00:36:43.880Z,101769.16
2023-09-05T00:39:11.444Z,101766.50
2023-09-05T00:41:39.712Z,101765.56
2023-09-05T00:44:06.994Z,101765.56
2023-09-05T00:46:35.173Z,101761.16
2023-09-05T00:49:04.274Z,101759.34
2023-09-05T00:51:32.980Z,101762.09
2023-09-05T00:54:02.479Z,101756.88
2023-09-05T00:56:29.898Z,101751.53
2023-09-05T00:58:57.437Z,101751.66
2023-09-05T01:01:24.504Z,101753.34
2023-09-05T01:03:52.819Z,101742.78
2023-09-05T01:06:29.086Z,101735.72
2023-09-05T01:09:28.959Z,101750.00
2023-09-05T01:11:57.897Z,101753.63
2023-09-05T01:14:24.952Z,101753.63
2023-09-05T01:16:51.940Z,101753.72
2023-09-05T01:19:19.015Z,101749.34
2023-09-05T01:22:44.631Z,101751.16
2023-09-05T01:25:14.058Z,101756.59
2023-09-05T01:27:41.135Z,101753.94
2023-09-05T01:30:09.601Z,101754.88
2023-09-05T01:32:36.594Z,101754.00
2023-09-05T01:35:03.675Z,101755.72
2023-09-05T01:37:30.672Z,101757.59
2023-09-05T01:39:57.614Z,101756.78
2023-09-05T01:42:24.528Z,101755.91
2023-09-05T01:44:51.553Z,101747.16
2023-09-05T01:47:18.497Z,101752.50
2023-09-05T01:49:45.472Z,101749.81
2023-09-05T01:52:12.435Z,101741.03
2023-09-05T01:54:40.757Z,101750.75
2023-09-05T01:57:07.731Z,101754.47
2023-09-05T01:59:34.776Z,101746.47
2023-09-05T02:02:01.689Z,101744.75
2023-09-05T02:04:28.658Z,101743.91
2023-09-05T02:06:55.583Z,101736.84
2023-09-05T02:09:22.570Z,101752.00
2023-09-05T02:11:49.559Z,101749.31
2023-09-05T02:14:16.524Z,101753.03
2023-09-05T02:16:43.481Z,101758.38
2023-09-05T02:19:10.838Z,101761.03
2023-09-05T02:21:37.928Z,101754.09
2023-09-05T02:24:05.303Z,101750.84
2023-09-05T02:26:32.259Z,101747.19
2023-09-05T02:28:59.976Z,101751.69
2023-09-05T02:31:26.984Z,101750.72
2023-09-05T02:33:54.063Z,101759.59
2023-09-05T02:36:22.461Z,101756.16
2023-09-05T02:38:49.630Z,101757.13
2023-09-05T02:41:18.106Z,101758.91
2023-09-05T02:43:48.286Z,101758.09
2023-09-05T02:46:16.220Z,101750.09
2023-09-05T02:48:44.132Z,101752.75
2023-09-05T02:51:12.785Z,101751.03
2023-09-05T02:53:40.584Z,101751.97
2023-09-05T02:56:07.586Z,101757.41
2023-09-05T02:58:35.129Z,101756.53
2023-09-05T03:01:04.038Z,101761.00
2023-09-05T03:03:32.440Z,101769.00
2023-09-05T03:06:08.507Z,101763.78
2023-09-05T03:08:36.513Z,101767.38
2023-09-05T03:11:03.468Z,101755.94
2023-09-05T03:13:30.437Z,101755.00
2023-09-05T03:15:57.625Z,101749.69
2023-09-05T03:18:26.609Z,101748.88
2023-09-05T03:20:54.110Z,101756.06
2023-09-05T03:23:24.262Z,101753.47
2023-09-05T03:25:53.528Z,101750.91
2023-09-05T03:28:21.441Z,101751.84
2023-09-05T03:30:48.411Z,101750.03
2023-09-05T03:33:15.732Z,101753.66
2023-09-05T03:35:44.384Z,101748.31
2023-09-05T03:38:11.495Z,101743.09
2023-09-05T03:40:38.442Z,101759.16
2023-09-05T03:43:05.362Z,101757.63
2023-09-05T03:45:32.453Z,101761.16
2023-09-05T03:48:02.320Z,101751.53
2023-09-05T03:50:30.294Z,101754.22
2023-09-05T03:52:57.304Z,101752.47
2023-09-05T03:55:24.755Z,101751.72
2023-09-05T03:57:51.821Z,101756.94
2023-09-05T04:00:18.806Z,101759.72
2023-09-05T04:02:46.776Z,101759.72
2023-09-05T04:05:14.847Z,101761.41
2023-09-05T04:07:43.230Z,101759.72
2023-09-05T04:10:10.600Z,101756.25
2023-09-05T04:12:38.737Z,101758.06
2023-09-05T04:15:06.452Z,101751.88
2023-09-05T04:17:33.744Z,101745.59
2023-09-05T04:20:00.936Z,101743.88
2023-09-05T04:24:58.354Z,101731.41
2023-09-05T04:27:25.362Z,101738.53
2023-09-05T04:29:56.049Z,101742.13
2023-09-05T04:32:30.566Z,101736.81
2023-09-05T04:34:59.558Z,101739.69
2023-09-05T04:37:26.642Z,101742.34
2023-09-05T04:39:53.845Z,101738.88
2023-09-05T04:42:20.869Z,101747.69
2023-09-05T04:44:48.701Z,101753.94
2023-09-05T04:47:35.466Z,101753.19
2023-09-05T04:50:02.653Z,101743.56
2023-09-05T04:52:30.868Z,101740.09
2023-09-05T04:55:01.411Z,101735.63
2023-09-05T04:57:29.874Z,101745.38
2023-09-05T05:00:01.512Z,101751.56
2023-09-05T05:02:29.963Z,101751.63
2023-09-05T05:04:57.565Z,101752.59
2023-09-05T05:07:25.141Z,101750.88
2023-09-05T05:09:52.159Z,101754.41
2023-09-05T05:12:19.269Z,101754.28
2023-09-05T05:14:46.429Z,101750.75
2023-09-05T05:17:14.748Z,101752.41
2023-09-05T05:19:42.142Z,101753.25
2023-09-05T05:22:09.446Z,101753.19
2023-09-05T05:24:36.528Z,101763.69
2023-09-05T05:27:03.545Z,101768.03
2023-09-05T05:29:33.879Z,101769.66
2023-09-05T05:32:02.701Z,101768.78
2023-09-05T05:34:31.311Z,101774.91
2023-09-05T05:36:58.601Z,101770.38
2023-09-05T05:39:27.582Z,101772.25
2023-09-05T05:41:55.186Z,101785.59
2023-09-05T05:44:22.264Z,101776.72
2023-09-05T05:46:49.401Z,101788.25
2023-09-05T05:49:16.414Z,101790.13
2023-09-05T05:51:43.455Z,101789.34
2023-09-05T05:54:11.266Z,101793.94
2023-09-05T05:56:38.404Z,101801.06
2023-09-05T05:59:05.684Z,101802.84
2023-09-05T06:01:33.892Z,101809.94
2023-09-05T06:04:01.193Z,101820.75
2023-09-05T06:06:28.342Z,101818.09
2023-09-05T06:08:55.404Z,101819.03
2023-09-05T06:11:22.501Z,101825.31
2023-09-05T06:13:53.657Z,101826.09
2023-09-05T06:16:22.256Z,101836.91
2023-09-05T06:18:49.464Z,101844.00
2023-09-05T06:21:16.585Z,101843.97
2023-09-05T06:23:43.610Z,101837.97
2023-09-05T06:26:10.628Z,101836.66
2023-09-05T06:28:37.659Z,101827.09
2023-09-05T06:31:06.218Z,101826.44
2023-09-05T06:33:33.594Z,101822.31
2023-09-05T06:36:06.636Z,101825.59
2023-09-05T06:38:34.959Z,101825.44
2023-09-05T06:41:09.320Z,101834.19
2023-09-05T06:43:36.448Z,101841.25
2023-09-05T06:46:08.731Z,101849.06
2023-09-05T06:48:36.956Z,101847.44
2023-09-05T06:51:04.172Z,101861.59
2023-09-05T06:53:32.965Z,101867.72
2023-09-05T06:56:00.026Z,101869.41
2023-09-05T06:58:28.266Z,101874.72
2023-09-05T07:00:56.222Z,101873.91
2023-09-05T07:03:24.982Z,101870.44
2023-09-05T07:06:05.708Z,101876.63
2023-09-05T07:08:34.225Z,101880.22
2023-09-05T07:11:01.617Z,101887.28
2023-09-05T07:13:29.055Z,101885.56
2023-09-05T07:15:58.033Z,101881.09
2023-09-05T07:18:26.086Z,101886.41
2023-09-05T07:20:53.620Z,101887.28
2023-09-05T07:23:20.704Z,101885.56
2023-09-05T07:25:47.995Z,101890.88
2023-09-05T07:28:15.206Z,101893.53
2023-09-05T07:30:42.755Z,101897.94
2023-09-05T07:33:10.312Z,101890.88
2023-09-05T07:35:37.975Z,101892.63
2023-09-05T07:38:05.590Z,101893.47
2023-09-05T07:40:32.604Z,101888.16
2023-09-05T07:43:01.976Z,101896.03
2023-09-05T07:45:29.502Z,101890.72
2023-09-05T07:47:56.711Z,101891.59
2023-09-05T07:50:24.214Z,101892.44
2023-09-05T07:52:51.484Z,101892.34
2023-09-05T07:55:19.357Z,101901.97
2023-09-05T07:57:46.446Z,101905.19
2023-09-05T08:00:17.315Z,101900.56
2023-09-05T08:02:45.014Z,101905.63
2023-09-05T08:05:13.522Z,101908.78
2023-09-05T08:07:40.890Z,101911.88
2023-09-05T08:10:08.971Z,101914.31
2023-09-05T08:12:36.077Z,101916.63
2023-09-05T08:15:03.317Z,101918.06
2023-09-05T08:17:32.015Z,101914.47
2023-09-05T08:20:00.084Z,101922.16
2023-09-05T08:22:27.319Z,101921.03
2023-09-05T08:24:54.399Z,101921.72
2023-09-05T08:27:21.524Z,101922.44
2023-09-05T08:29:49.041Z,101926.53
2023-09-05T08:32:16.368Z,101928.78
2023-09-05T08:34:43.604Z,101933.91
2023-09-05T08:37:10.659Z,101926.59
2023-09-05T08:39:38.437Z,101929.78
2023-09-05T08:42:09.592Z,101937.50
2023-09-05T08:44:43.200Z,101945.84
2023-09-05T08:47:10.681Z,101933.50
2023-09-05T08:49:39.091Z,101929.78
2023-09-05T08:52:08.106Z,101931.22
2023-09-05T08:54:35.309Z,101938.03
2023-09-05T08:57:04.856Z,101925.16
2023-09-05T08:59:33.556Z,101942.81
2023-09-05T09:02:01.970Z,101936.72
2023-09-05T09:04:29.525Z,101950.81
2023-09-05T09:06:57.933Z,101948.13
2023-09-05T09:09:36.673Z,101947.28
2023-09-05T09:12:04.455Z,101945.19
2023-09-05T09:14:34.052Z,101945.88
2023-09-05T09:17:06.224Z,101947.44
2023-09-05T09:19:34.237Z,101955.34
2023-09-05T09:22:04.525Z,101954.13
2023-09-05T09:24:36.263Z,101950.59
2023-09-05T09:27:05.816Z,101941.63
2023-09-05T09:29:34.403Z,101943.25
2023-09-05T09:32:10.846Z,101944.13
2023-09-05T09:34:39.424Z,101944.97
2023-09-05T09:37:06.498Z,101933.28
2023-09-05T09:39:34.063Z,101943.69
2023-09-05T09:42:02.517Z,101946.25
2023-09-05T09:44:32.160Z,101940.63
2023-09-05T09:47:01.071Z,101940.47
2023-09-05T09:49:30.094Z,101950.78
2023-09-05T09:52:05.785Z,101946.00
2023-09-05T09:54:40.311Z,101938.50
2023-09-05T09:57:10.179Z,101938.22
2023-09-05T09:59:43.486Z,101940.31
2023-09-05T10:02:15.090Z,101934.56
2023-09-05T10:04:44.691Z,101925.44
2023-09-05T10:07:19.254Z,101920.72
2023-09-05T10:09:49.028Z,101916.06
2023-09-05T10:12:22.864Z,101914.16
2023-09-05T10:14:50.875Z,101916.75
2023-09-05T10:17:21.480Z,101920.09
2023-09-05T10:19:51.349Z,101924.47
2023-09-05T10:22:18.666Z,101916.44
2023-09-05T10:24:47.428Z,101907.38
2023-09-05T10:27:14.766Z,101911.66
2023-09-05T10:29:49.309Z,101918.75
2023-09-05T10:32:19.857Z,101915.94
2023-09-05T10:34:50.209Z,101914.91
2023-09-05T10:37:20.090Z,101914.91
2023-09-05T10:39:48.815Z,101907.69
2023-09-05T10:42:17.497Z,101911.13
2023-09-05T10:44:47.518Z,101915.41
2023-09-05T10:47:34.865Z,101917.41
2023-09-05T10:50:06.001Z,101911.50
2023-09-05T10:52:34.122Z,101914.16
2023-09-05T10:55:27.183Z,101917.78
2023-09-05T10:57:54.229Z,101906.34
2023-09-05T11:00:22.425Z,101911.56
2023-09-05T11:02:50.159Z,101911.50
2023-09-05T11:05:20.969Z,101902.59
2023-09-05T11:07:52.098Z,101898.00
2023-09-05T11:10:28.830Z,101897.94
2023-09-05T11:12:56.442Z,101891.53
2023-09-05T11:15:34.361Z,101902.22
2023-09-05T11:18:08.128Z,101898.50
2023-09-05T11:20:42.013Z,101891.72
2023-09-05T11:23:15.717Z,101895.25
2023-09-05T11:25:55.461Z,101887.22
2023-09-05T11:28:24.511Z,101888.06
2023-09-05T11:30:58.925Z,101882.63
2023-09-05T11:33:28.157Z,101888.94
2023-09-05T11:35:55.602Z,101889.91
2023-09-05T11:38:24.845Z,101886.06
2023-09-05T11:40:55.801Z,101884.25
2023-09-05T11:43:24.361Z,101886.81
2023-09-05T11:45:57.268Z,101883.91
2023-09-05T11:48:30.576Z,101892.88
2023-09-05T11:50:58.367Z,101889.66
2023-09-05T11:53:25.955Z,101893.50
2023-09-05T11:55:53.519Z,101883.75
2023-09-05T11:58:20.816Z,101892.44
2023-09-05T12:00:52.550Z,101892.44
2023-09-05T12:03:20.072Z,101889.66
2023-09-05T12:05:53.559Z,101889.66
2023-09-05T12:08:35.411Z,101893.06
2023-09-05T12:11:05.200Z,101883.16
2023-09-05T12:13:42.154Z,101875.13
2023-09-05T12:16:10.665Z,101876.00
2023-09-05T12:18:42.418Z,101873.00
2023-09-05T12:21:12.200Z,101880.06
2023-09-05T12:23:39.260Z,101871.84
2023-09-05T12:26:06.367Z,101873.56
2023-09-05T12:28:34.283Z,101875.22
2023-09-05T12:31:08.088Z,101866.75
2023-09-05T12:33:35.328Z,101875.06
2023-09-05T12:36:02.584Z,101868.09
2023-09-05T12:38:32.953Z,101860.06
2023-09-05T12:41:00.100Z,101850.16
2023-09-05T12:43:27.430Z,101850.16
2023-09-05T12:45:54.648Z,101849.09
2023-09-05T12:48:21.835Z,101843.53
2023-09-05T12:50:51.396Z,101842.47
2023-09-05T12:53:21.090Z,101846.97
2023-09-05T12:55:48.837Z,101841.59
2023-09-05T12:58:16.004Z,101833.47
2023-09-05T13:00:43.573Z,101833.47
2023-09-05T13:03:13.188Z,101830.03
2023-09-05T13:05:41.266Z,101843.31
2023-09-05T13:08:11.315Z,101835.19
2023-09-05T13:10:38.796Z,101830.78
2023-09-05T13:13:08.552Z,101833.47
2023-09-05T13:15:37.123Z,101835.19
2023-09-05T13:18:04.456Z,101829.94
2023-09-05T13:20:32.651Z,101835.19
2023-09-05T13:23:00.649Z,101827.03
2023-09-05T13:25:30.809Z,101832.84
2023-09-05T13:27:58.434Z,101833.88
2023-09-05T13:30:26.051Z,101832.84
2023-09-05T13:32:54.013Z,101814.31
2023-09-05T13:35:21.245Z,101816.53
2023-09-05T13:37:48.376Z,101816.78
2023-09-05T13:40:15.542Z,101814.09
2023-09-05T13:42:42.804Z,101812.25
2023-09-05T13:45:10.111Z,101817.53
2023-09-05T13:47:39.153Z,101805.97
2023-09-05T13:50:08.130Z,101808.75
2023-09-05T13:52:35.219Z,101813.88
2023-09-05T13:55:02.398Z,101811.44
2023-09-05T13:57:29.815Z,101816.78
2023-09-05T13:59:56.925Z,101798.06
2023-09-05T14:02:24.090Z,101809.72
2023-09-05T14:04:52.363Z,101802.63
2023-09-05T14:07:19.700Z,101807.69
2023-09-05T14:09:46.753Z,101799.00
2023-09-05T14:12:19.756Z,101801.75
2023-09-05T14:14:46.978Z,101803.69
2023-09-05T14:17:15.575Z,101802.88
2023-09-05T14:19:42.723Z,101807.00
2023-09-05T14:22:10.239Z,101799.75
2023-09-05T14:24:37.497Z,101807.44
2023-09-05T14:27:05.997Z,101806.09
2023-09-05T14:29:34.324Z,101799.88
2023-09-05T14:32:01.595Z,101796.41
2023-09-05T14:34:28.899Z,101799.22
2023-09-05T14:36:56.185Z,101812.78
2023-09-05T14:39:23.412Z,101801.34
2023-09-05T14:41:50.634Z,101807.97
2023-09-05T14:44:18.646Z,101808.63
2023-09-05T14:46:45.889Z,101811.28
2023-09-05T14:49:13.827Z,101809.03
2023-09-05T14:51:42.922Z,101803.91
2023-09-05T14:54:10.219Z,101810.97
2023-09-05T14:56:37.973Z,101811.19
2023-09-05T14:59:05.136Z,101811.50
2023-09-05T15:01:32.245Z,101806.47
2023-09-05T15:03:59.430Z,101808.16
2023-09-05T15:06:26.512Z,101799.06
2023-09-05T15:08:53.609Z,101807.84
2023-09-05T15:11:20.903Z,101808.81
2023-09-05T15:13:47.935Z,101810.75
2023-09-05T15:16:15.193Z,101805.59
2023-09-05T15:18:42.572Z,101809.03
2023-09-05T15:21:09.799Z,101802.81
2023-09-05T15:23:36.960Z,101800.25
2023-09-05T15:26:06.470Z,101812.84
2023-09-05T15:28:33.799Z,101804.72
2023-09-05T15:31:01.183Z,101792.22
2023-09-05T15:33:28.654Z,101786.69
2023-09-05T15:36:00.632Z,101783.03
2023-09-05T15:38:28.662Z,101781.41
2023-09-05T15:40:56.373Z,101779.81
2023-09-05T15:43:23.457Z,101789.56
2023-09-05T15:45:52.681Z,101787.06
2023-09-05T15:48:19.869Z,101793.38
2023-09-05T15:50:47.331Z,101783.06
2023-09-05T15:53:17.740Z,101782.06
2023-09-05T15:55:45.074Z,101785.75
2023-09-05T15:58:12.278Z,101785.22
2023-09-05T16:00:39.412Z,101797.63
2023-09-05T16:03:06.821Z,101792.47
2023-09-05T16:05:34.137Z,101790.78
2023-09-05T16:08:01.582Z,101789.81
2023-09-05T16:10:28.980Z,101788.13
2023-09-05T16:12:56.274Z,101797.06
2023-09-05T16:15:23.942Z,101799.75
2023-09-05T16:17:51.076Z,101802.63
2023-09-05T16:20:18.230Z,101796.53
2023-09-05T16:22:48.663Z,101796.72
2023-09-05T16:25:16.669Z,101796.72
2023-09-05T16:27:44.081Z,101802.19
2023-09-05T16:30:11.822Z,101794.63
2023-09-05T16:32:38.966Z,101793.41
2023-09-05T16:35:06.619Z,101796.84
2023-09-05T16:37:33.711Z,101787.78
2023-09-05T16:40:00.874Z,101790.63
2023-09-05T16:42:28.241Z,101777.38
2023-09-05T16:44:55.461Z,101779.94
2023-09-05T16:47:23.019Z,101784.34
2023-09-05T16:49:50.752Z,101778.03
2023-09-05T16:52:18.136Z,101794.06
2023-09-05T16:54:45.729Z,101793.69
2023-09-05T16:57:14.820Z,101793.59
2023-09-05T16:59:42.740Z,101795.19
2023-09-05T17:02:10.017Z,101793.19
2023-09-05T17:04:38.733Z,101794.06
2023-09-05T17:07:07.251Z,101803.88
2023-09-05T17:09:34.928Z,101809.16
2023-09-05T17:12:02.345Z,101803.81
2023-09-05T17:14:30.983Z,101795.00
2023-09-05T17:16:58.293Z,101795.00
2023-09-05T17:19:26.037Z,101806.34
2023-09-05T17:21:54.635Z,101800.16
2023-09-05T17:24:21.859Z,101795.78
2023-09-05T17:26:49.283Z,101801.22
2023-09-05T17:29:17.997Z,101800.78
2023-09-05T17:31:45.302Z,101796.44
2023-09-05T17:34:16.622Z,101805.63
2023-09-05T17:36:43.944Z,101808.41
2023-09-05T17:39:12.034Z,101807.72
2023-09-05T17:41:40.619Z,101797.78
2023-09-05T17:44:07.973Z,101806.38
2023-09-05T17:46:35.541Z,101807.06
2023-09-05T17:49:03.403Z,101811.47
2023-09-05T17:51:30.978Z,101811.47
2023-09-05T17:53:58.337Z,101809.75
2023-09-05T17:56:29.657Z,101818.50
2023-09-05T17:58:57.167Z,101807.81
2023-09-05T18:01:25.763Z,101813.91
2023-09-05T18:03:55.625Z,101814.69
2023-09-05T18:06:23.537Z,101810.28
2023-09-05T18:08:53.647Z,101814.69
2023-09-05T18:11:24.255Z,101803.03
2023-09-05T18:13:51.920Z,101804.00
2023-09-05T18:16:20.063Z,101812.56
2023-09-05T18:18:49.982Z,101817.72
2023-09-05T18:21:19.964Z,101811.50
2023-09-05T18:23:47.434Z,101821.34
2023-09-05T18:26:15.862Z,101816.84
2023-09-05T18:28:46.486Z,101817.72
2023-09-05T18:31:18.445Z,101816.66
2023-09-05T18:33:47.287Z,101820.09
2023-09-05T18:36:16.366Z,101817.09
2023-09-05T18:38:45.814Z,101808.13
2023-09-05T18:41:21.030Z,101819.56
2023-09-05T18:43:51.140Z,101818.63
2023-09-05T18:46:20.543Z,101836.38
2023-09-05T18:48:48.786Z,101836.38
2023-09-05T18:51:19.339Z,101836.09
2023-09-05T18:53:47.684Z,101836.91
2023-09-05T18:56:18.706Z,101835.09
2023-09-05T18:58:46.873Z,101840.38
2023-09-05T19:01:20.406Z,101849.25
2023-09-05T19:03:48.437Z,101858.88
2023-09-05T19:06:16.094Z,101852.69
2023-09-05T19:08:45.731Z,101850.00
2023-09-05T19:11:16.837Z,101856.97
2023-09-05T19:13:44.807Z,101847.97
2023-09-05T19:16:12.654Z,101839.84
2023-09-05T19:18:41.221Z,101835.38
2023-09-05T19:21:08.510Z,101838.88
2023-09-05T19:23:36.077Z,101841.47
2023-09-05T19:26:06.580Z,101844.13
2023-09-05T19:28:34.387Z,101835.16
2023-09-05T19:31:05.161Z,101842.00
2023-09-05T19:33:33.655Z,101842.75
2023-09-05T19:36:03.218Z,101833.88
2023-09-05T19:38:32.792Z,101841.81
2023-09-05T19:41:11.755Z,101843.53
2023-09-05T19:43:41.528Z,101848.03
2023-09-05T19:46:10.042Z,101860.75
2023-09-05T19:48:39.153Z,101852.91
2023-09-05T19:51:07.738Z,101857.31
2023-09-05T19:53:35.433Z,101856.34
2023-09-05T19:56:08.926Z,101852.91
2023-09-05T19:58:39.052Z,101853.78
2023-09-05T20:01:07.871Z,101868.00
2023-09-05T20:03:36.941Z,101865.53
2023-09-05T20:06:06.620Z,101870.88
2023-09-05T20:08:43.526Z,101880.72
2023-09-05T20:11:11.650Z,101873.66
2023-09-05T20:13:39.826Z,101886.00
2023-09-05T20:16:09.634Z,101876.44
2023-09-05T20:18:37.502Z,101879.22
2023-09-05T20:21:07.018Z,101886.28
2023-09-05T20:23:35.582Z,101893.34
2023-09-05T20:26:04.333Z,101888.94
2023-09-05T20:28:33.277Z,101893.44
2023-09-05T20:31:03.022Z,101889.94
2023-09-05T20:33:36.136Z,101889.06
2023-09-05T20:36:06.934Z,101902.44
2023-09-05T20:38:36.061Z,101904.25
2023-09-05T20:41:05.508Z,101894.50
2023-09-05T20:43:35.112Z,101897.16
2023-09-05T20:46:02.736Z,101894.59
2023-09-05T20:48:32.887Z,101884.84
2023-09-05T20:51:02.228Z,101890.22
2023-09-05T20:53:30.216Z,101876.09
2023-09-05T20:56:00.860Z,101866.34
2023-09-05T20:58:29.290Z,101860.97
2023-09-05T21:00:59.024Z,101872.53
2023-09-05T21:03:27.002Z,101871.69
2023-09-05T21:05:54.841Z,101881.75
2023-09-05T21:08:28.254Z,101875.28
2023-09-05T21:10:56.461Z,101888.19
2023-09-05T21:13:25.686Z,101880.66
2023-09-05T21:16:03.932Z,101879.25
2023-09-05T21:18:32.578Z,101877.88
2023-09-05T21:21:00.622Z,101885.13
2023-09-05T21:23:28.435Z,101885.34
2023-09-05T21:25:56.078Z,101888.22
2023-09-05T21:28:23.521Z,101891.94
2023-09-05T21:30:52.519Z,101886.84
2023-09-05T21:33:20.980Z,101896.03
2023-09-05T21:35:52.231Z,101899.66
2023-09-05T21:38:21.083Z,101889.94
2023-09-05T21:40:50.463Z,101885.84
2023-09-05T21:43:18.761Z,101892.00
2023-09-05T21:45:47.798Z,101885.16
2023-09-05T21:48:15.532Z,101886.97
2023-09-05T21:50:43.517Z,101880.00
2023-09-05T21:53:10.894Z,101886.22
2023-09-05T21:55:38.330Z,101899.75
2023-09-05T21:58:05.907Z,101894.53
2023-09-05T22:00:34.678Z,101879.56
2023-09-05T22:03:04.067Z,101884.97
2023-09-05T22:05:32.334Z,101886.03
2023-09-05T22:08:02.348Z,101886.13
2023-09-05T22:10:29.854Z,101879.16
2023-09-05T22:12:57.154Z,101888.00
2023-09-05T22:15:24.491Z,101889.06
2023-09-05T22:17:54.891Z,101884.59
2023-09-05T22:20:24.336Z,101890.03
2023-09-05T22:22:51.925Z,101888.31
2023-09-05T22:25:19.876Z,101894.50
2023-09-05T22:27:47.858Z,101886.59
2023-09-05T22:30:17.292Z,101892.88
2023-09-05T22:32:45.080Z,101892.13
2023-09-05T22:35:12.869Z,101891.34
2023-09-05T22:37:40.287Z,101890.69
2023-09-05T22:40:26.459Z,101890.69
2023-09-05T22:42:53.621Z,101898.78
2023-09-05T22:45:22.393Z,101890.00
2023-09-05T22:47:51.346Z,101887.44
2023-09-05T22:50:18.649Z,101890.13
2023-09-05T22:52:45.971Z,101896.41
2023-09-05T22:55:13.894Z,101886.59
2023-09-05T22:57:40.981Z,101883.22
2023-09-05T23:00:17.859Z,101882.28
2023-09-05T23:02:45.248Z,101872.56
2023-09-05T23:05:13.932Z,101878.88
2023-09-05T23:07:45.319Z,101881.72
2023-09-05T23:10:12.892Z,101876.38
2023-09-05T23:12:39.875Z,101864.88
2023-09-05T23:15:07.612Z,101865.75
2023-09-05T23:17:34.981Z,101864.88
2023-09-05T23:20:02.427Z,101868.41
2023-09-05T23:22:29.916Z,101865.91
2023-09-05T23:24:57.098Z,101866.03
2023-09-05T23:27:25.246Z,101860.59
2023-09-05T23:29:52.334Z,101865.91
2023-09-05T23:32:19.356Z,101864.22
2023-09-05T23:34:46.342Z,101858.22
2023-09-05T23:37:13.676Z,101855.34
2023-09-05T23:39:42.361Z,101851.13
2023-09-05T23:42:09.593Z,101844.09
2023-09-05T23:44:36.767Z,101850.09
2023-09-05T23:47:07.841Z,101857.34
2023-09-05T23:49:37.742Z,101857.53
2023-09-05T23:52:05.646Z,101862.22
2023-09-05T23:54:32.946Z,101851.53
2023-09-05T23:57:00.103Z,101848.69
2023-09-05T23:59:27.352Z,101846.94
